createdAt,value
2022-11-30T00:01:32.702Z,9.50
2022-11-30T00:04:01.083Z,8.33
2022-11-30T00:06:29.564Z,8.00
2022-11-30T00:08:58.659Z,11.00
2022-11-30T00:11:28.918Z,15.00
2022-11-30T00:13:57.364Z,8.00
2022-11-30T00:16:27.714Z,10.00
2022-11-30T00:18:56.271Z,9.00
2022-11-30T00:21:24.649Z,10.50
2022-11-30T00:23:53.030Z,8.00
2022-11-30T00:26:23.148Z,11.00
2022-11-30T00:28:51.430Z,9.33
2022-11-30T00:31:20.453Z,8.00
2022-11-30T00:33:49.132Z,11.00
2022-11-30T00:36:19.862Z,9.00
2022-11-30T00:38:48.835Z,13.33
2022-11-30T00:41:18.241Z,7.67
2022-11-30T00:43:47.026Z,12.00
2022-11-30T00:46:15.568Z,8.00
2022-11-30T00:48:43.888Z,12.00
2022-11-30T00:51:13.006Z,7.00
2022-11-30T00:53:42.284Z,7.50
2022-11-30T00:56:11.176Z,9.00
2022-11-30T00:58:40.477Z,8.50
2022-11-30T01:01:09.217Z,11.00
2022-11-30T01:03:38.160Z,8.00
2022-11-30T01:06:08.721Z,11.00
2022-11-30T01:08:37.179Z,9.00
2022-11-30T01:11:14.869Z,7.00
2022-11-30T01:13:43.349Z,7.33
2022-11-30T01:16:19.052Z,7.00
2022-11-30T01:18:48.197Z,8.50
2022-11-30T01:21:18.864Z,12.00
2022-11-30T01:23:47.965Z,11.00
2022-11-30T01:26:17.229Z,8.00
2022-11-30T01:28:46.825Z,8.00
2022-11-30T01:31:15.471Z,8.50
2022-11-30T01:33:43.899Z,8.00
2022-11-30T01:36:15.077Z,9.50
2022-11-30T01:38:45.804Z,8.00
2022-11-30T01:41:18.463Z,7.00
2022-11-30T01:43:52.268Z,6.50
2022-11-30T01:46:44.233Z,9.00
2022-11-30T01:49:19.950Z,7.00
2022-11-30T01:51:51.194Z,9.00
2022-11-30T01:54:24.389Z,8.00
2022-11-30T01:56:57.169Z,9.50
2022-11-30T01:59:26.473Z,5.00
2022-11-30T02:01:55.877Z,9.00
2022-11-30T02:04:31.029Z,7.00
2022-11-30T02:07:00.311Z,5.00
2022-11-30T02:09:30.045Z,7.00
2022-11-30T02:11:59.126Z,11.50
2022-11-30T02:14:39.792Z,7.00
2022-11-30T02:17:40.933Z,7.00
2022-11-30T02:20:38.805Z,6.00
2022-11-30T02:23:22.954Z,8.00
2022-11-30T02:26:09.765Z,8.00
2022-11-30T02:29:04.772Z,6.00
2022-11-30T02:32:07.863Z,8.00
2022-11-30T02:34:37.782Z,6.00
2022-11-30T02:37:07.489Z,6.00
2022-11-30T02:39:35.970Z,3.33
2022-11-30T02:42:04.451Z,5.00
2022-11-30T02:44:32.755Z,8.00
2022-11-30T02:47:39.100Z,7.00
2022-11-30T02:50:21.715Z,9.00
2022-11-30T02:52:51.217Z,5.00
2022-11-30T02:55:20.736Z,4.00
2022-11-30T02:57:49.000Z,4.00
2022-11-30T03:00:18.003Z,5.00
2022-11-30T03:02:46.317Z,7.00
2022-11-30T03:05:14.958Z,4.50
2022-11-30T03:07:43.266Z,7.00
2022-11-30T03:10:12.025Z,7.00
2022-11-30T03:12:40.196Z,6.50
2022-11-30T03:15:11.650Z,7.00
2022-11-30T03:17:40.139Z,5.50
2022-11-30T03:20:09.099Z,6.50
2022-11-30T03:22:37.504Z,6.00
2022-11-30T03:25:06.301Z,8.00
2022-11-30T03:27:34.571Z,3.00
2022-11-30T03:30:03.267Z,5.33
2022-11-30T03:32:31.844Z,8.00
2022-11-30T03:35:00.121Z,7.00
2022-11-30T03:37:28.499Z,7.00
2022-11-30T03:39:58.526Z,6.00
2022-11-30T03:42:27.098Z,8.00
2022-11-30T03:44:55.580Z,8.00
2022-11-30T03:47:23.966Z,7.00
2022-11-30T03:49:52.340Z,4.00
2022-11-30T03:52:20.720Z,9.00
2022-11-30T03:54:49.364Z,7.33
2022-11-30T03:57:17.886Z,6.00
2022-11-30T03:59:46.161Z,6.00
2022-11-30T04:02:14.543Z,7.00
2022-11-30T04:04:42.921Z,7.50
2022-11-30T04:07:11.303Z,6.50
2022-11-30T04:09:39.579Z,8.00
2022-11-30T04:12:08.070Z,5.00
2022-11-30T04:14:37.054Z,6.00
2022-11-30T04:17:05.440Z,7.00
2022-11-30T04:19:33.818Z,8.00
2022-11-30T04:22:02.188Z,6.00
2022-11-30T04:24:30.571Z,6.50
2022-11-30T04:26:59.052Z,5.00
2022-11-30T04:29:27.428Z,7.67
2022-11-30T04:31:55.928Z,6.00
2022-11-30T04:34:24.291Z,5.00
2022-11-30T04:36:56.049Z,6.00
2022-11-30T04:39:28.422Z,8.33
2022-11-30T04:41:56.904Z,5.00
2022-11-30T04:44:25.286Z,5.00
2022-11-30T04:46:53.752Z,8.50
2022-11-30T04:49:22.245Z,6.33
2022-11-30T04:51:50.626Z,7.00
2022-11-30T04:54:19.005Z,9.00
2022-11-30T04:56:47.392Z,7.00
2022-11-30T04:59:15.774Z,6.00
2022-11-30T05:01:44.274Z,5.50
2022-11-30T05:04:12.917Z,4.33
2022-11-30T05:06:41.446Z,6.00
2022-11-30T05:09:10.513Z,5.00
2022-11-30T05:11:38.901Z,6.00
2022-11-30T05:14:07.372Z,7.00
2022-11-30T05:16:35.871Z,5.00
2022-11-30T05:19:04.440Z,8.00
2022-11-30T05:21:33.021Z,3.33
2022-11-30T05:24:01.403Z,6.75
2022-11-30T05:26:29.780Z,7.00
2022-11-30T05:28:58.363Z,5.00
2022-11-30T05:31:26.716Z,3.00
2022-11-30T05:33:55.224Z,7.00
2022-11-30T05:36:24.117Z,5.00
2022-11-30T05:38:52.494Z,5.00
2022-11-30T05:41:20.973Z,7.50
2022-11-30T05:43:49.558Z,5.00
2022-11-30T05:46:17.949Z,6.00
2022-11-30T05:48:46.320Z,6.00
2022-11-30T05:51:16.965Z,6.00
2022-11-30T05:53:46.074Z,4.00
2022-11-30T05:56:20.318Z,6.33
2022-11-30T05:58:49.051Z,4.00
2022-11-30T06:01:28.078Z,6.00
2022-11-30T06:03:56.870Z,7.00
2022-11-30T06:06:25.147Z,8.00
2022-11-30T06:08:56.805Z,7.00
2022-11-30T06:11:25.180Z,7.00
2022-11-30T06:13:53.562Z,7.00
2022-11-30T06:16:21.873Z,7.50
2022-11-30T06:18:50.321Z,7.00
2022-11-30T06:21:24.166Z,7.00
2022-11-30T06:23:53.427Z,6.50
2022-11-30T06:26:21.731Z,4.33
2022-11-30T06:28:50.187Z,5.00
2022-11-30T06:31:18.502Z,7.00
2022-11-30T06:33:46.947Z,6.00
2022-11-30T06:36:21.312Z,4.00
2022-11-30T06:38:50.461Z,7.00
2022-11-30T06:41:19.252Z,7.00
2022-11-30T06:43:47.628Z,5.00
2022-11-30T06:46:16.402Z,7.00
2022-11-30T06:48:48.995Z,6.33
2022-11-30T06:51:17.989Z,2.00
2022-11-30T06:53:46.777Z,9.00
2022-11-30T06:56:15.182Z,7.33
2022-11-30T06:58:43.639Z,8.00
2022-11-30T07:01:14.489Z,5.00
2022-11-30T07:03:43.047Z,7.00
2022-11-30T07:06:13.103Z,6.00
2022-11-30T07:08:42.608Z,6.67
2022-11-30T07:11:12.169Z,8.33
2022-11-30T07:13:40.469Z,8.00
2022-11-30T07:16:11.335Z,5.50
2022-11-30T07:18:39.686Z,9.50
2022-11-30T07:21:08.375Z,7.67
2022-11-30T07:23:56.932Z,8.00
2022-11-30T07:26:26.225Z,7.00
2022-11-30T07:28:55.661Z,6.50
2022-11-30T07:31:29.337Z,7.33
2022-11-30T07:33:58.851Z,7.00
2022-11-30T07:36:27.933Z,7.00
2022-11-30T07:38:56.420Z,6.00
2022-11-30T07:41:24.896Z,9.33
2022-11-30T07:43:53.275Z,6.00
2022-11-30T07:46:21.718Z,7.00
2022-11-30T07:48:50.343Z,6.00
2022-11-30T07:51:22.918Z,8.50
2022-11-30T07:53:51.710Z,7.67
2022-11-30T07:56:21.113Z,8.00
2022-11-30T07:58:51.930Z,6.50
2022-11-30T08:01:22.714Z,9.00
2022-11-30T08:03:53.592Z,6.50
2022-11-30T08:06:24.440Z,10.00
2022-11-30T08:08:54.584Z,9.33
2022-11-30T08:11:26.004Z,6.33
2022-11-30T08:13:55.013Z,9.50
2022-11-30T08:16:25.785Z,7.33
2022-11-30T08:18:56.393Z,6.00
2022-11-30T08:21:25.181Z,3.00
2022-11-30T08:23:58.461Z,6.00
2022-11-30T08:26:32.641Z,6.00
2022-11-30T08:29:01.723Z,7.50
2022-11-30T08:31:35.875Z,5.00
2022-11-30T08:34:12.298Z,3.00
2022-11-30T08:36:41.669Z,7.00
2022-11-30T08:39:12.948Z,4.00
2022-11-30T08:41:41.195Z,5.00
2022-11-30T08:44:09.885Z,4.00
2022-11-30T08:46:54.057Z,5.00
2022-11-30T08:49:24.416Z,6.50
2022-11-30T08:54:46.454Z,4.00
2022-11-30T08:57:17.819Z,4.67
2022-11-30T08:59:46.410Z,4.67
2022-11-30T09:02:18.523Z,4.00
2022-11-30T09:05:09.396Z,7.00
2022-11-30T09:07:37.643Z,5.67
2022-11-30T09:10:06.987Z,6.00
2022-11-30T09:12:37.430Z,6.33
2022-11-30T09:15:07.100Z,3.50
2022-11-30T09:17:35.398Z,7.00
2022-11-30T09:20:04.302Z,7.00
2022-11-30T09:22:32.677Z,5.00
2022-11-30T09:25:01.472Z,5.00
2022-11-30T09:27:32.682Z,4.00
2022-11-30T09:30:01.005Z,10.00
2022-11-30T09:32:30.005Z,5.00
2022-11-30T09:34:58.191Z,8.50
2022-11-30T09:37:26.754Z,7.00
2022-11-30T09:39:55.123Z,6.00
2022-11-30T09:43:01.699Z,7.00
2022-11-30T09:45:32.380Z,7.00
2022-11-30T09:48:22.025Z,5.00
2022-11-30T09:50:51.717Z,6.67
2022-11-30T09:53:29.855Z,7.00
2022-11-30T09:55:59.435Z,9.00
2022-11-30T09:58:42.867Z,12.33
2022-11-30T10:01:17.857Z,11.00
2022-11-30T10:03:47.409Z,15.50
2022-11-30T10:06:43.861Z,11.00
2022-11-30T10:09:33.552Z,11.50
2022-11-30T10:12:27.917Z,14.00
2022-11-30T10:15:18.114Z,15.50
2022-11-30T10:17:57.913Z,11.33
2022-11-30T10:20:35.153Z,13.00
2022-11-30T10:23:21.264Z,8.50
2022-11-30T10:25:57.899Z,15.00
2022-11-30T10:28:47.603Z,13.00
2022-11-30T10:31:18.283Z,15.50
2022-11-30T10:33:49.863Z,8.33
2022-11-30T10:36:39.890Z,13.00
2022-11-30T10:39:51.554Z,12.00
2022-11-30T10:42:26.612Z,14.50
2022-11-30T10:45:02.341Z,9.67
2022-11-30T10:47:37.005Z,12.50
2022-11-30T10:50:06.534Z,13.50
2022-11-30T10:52:49.266Z,15.00
2022-11-30T10:55:41.837Z,12.50
2022-11-30T10:58:39.298Z,11.00
2022-11-30T11:01:29.240Z,14.50
2022-11-30T11:04:19.142Z,14.00
2022-11-30T11:06:57.719Z,9.00
2022-11-30T11:09:36.725Z,8.00
2022-11-30T11:12:07.222Z,10.00
2022-11-30T11:14:38.222Z,13.00
2022-11-30T11:17:24.482Z,7.00
2022-11-30T11:19:53.045Z,9.00
2022-11-30T11:22:24.005Z,8.50
2022-11-30T11:25:19.928Z,11.50
2022-11-30T11:27:53.664Z,9.00
2022-11-30T11:30:30.417Z,7.00
2022-11-30T11:32:59.202Z,10.00
2022-11-30T11:35:46.628Z,10.00
2022-11-30T11:38:27.709Z,15.00
2022-11-30T11:41:00.898Z,9.00
2022-11-30T11:43:34.733Z,11.00
2022-11-30T11:46:13.622Z,4.50
2022-11-30T11:48:48.750Z,9.00
2022-11-30T11:51:38.957Z,13.00
2022-11-30T11:54:19.357Z,9.00
2022-11-30T11:56:48.318Z,11.00
2022-11-30T11:59:40.969Z,5.33
2022-11-30T12:02:21.690Z,9.00
2022-11-30T12:04:57.922Z,9.00
2022-11-30T12:07:30.160Z,7.50
2022-11-30T12:13:22.663Z,14.00
2022-11-30T12:16:14.837Z,8.00
2022-11-30T12:18:46.729Z,7.50
2022-11-30T12:21:19.408Z,12.00
2022-11-30T12:23:59.114Z,11.00
2022-11-30T12:26:39.050Z,10.00
2022-11-30T12:29:34.827Z,13.00
2022-11-30T12:32:06.174Z,8.50
2022-11-30T12:35:00.254Z,9.00
2022-11-30T12:37:50.347Z,11.00
2022-11-30T12:40:31.627Z,5.00
2022-11-30T12:43:09.455Z,9.50
2022-11-30T12:45:41.697Z,12.33
2022-11-30T12:48:28.138Z,13.50
2022-11-30T12:51:21.915Z,11.00
2022-11-30T12:54:01.875Z,9.50
2022-11-30T12:56:44.277Z,9.00
2022-11-30T12:59:28.265Z,6.00
2022-11-30T13:01:59.781Z,9.50
2022-11-30T13:04:38.860Z,10.00
2022-11-30T13:07:23.444Z,10.00
2022-11-30T13:10:02.652Z,11.00
2022-11-30T13:12:37.855Z,12.50
2022-11-30T13:15:15.727Z,11.00
2022-11-30T13:17:45.629Z,10.00
2022-11-30T13:20:26.072Z,11.33
2022-11-30T13:23:06.333Z,9.00
2022-11-30T13:26:08.920Z,8.00
2022-11-30T13:28:51.628Z,11.00
2022-11-30T13:31:30.636Z,11.00
2022-11-30T13:34:00.095Z,11.00
2022-11-30T13:36:34.030Z,10.00
2022-11-30T13:39:12.691Z,12.50
2022-11-30T13:41:45.065Z,11.00
2022-11-30T13:44:41.090Z,9.50
2022-11-30T13:47:20.324Z,14.00
2022-11-30T13:49:56.094Z,10.50
2022-11-30T13:52:58.364Z,13.00
2022-11-30T13:55:35.962Z,11.00
2022-11-30T13:58:07.514Z,15.00
2022-11-30T14:00:35.711Z,13.00
2022-11-30T14:03:24.932Z,12.00
2022-11-30T14:05:54.449Z,13.00
2022-11-30T14:08:22.629Z,12.00
2022-11-30T14:13:29.168Z,17.50
2022-11-30T14:16:02.124Z,9.00
2022-11-30T14:18:30.372Z,12.00
2022-11-30T14:21:02.355Z,14.00
2022-11-30T14:23:39.622Z,13.67
2022-11-30T14:26:15.091Z,11.00
2022-11-30T14:28:59.379Z,13.50
2022-11-30T14:31:31.207Z,12.00
2022-11-30T14:34:03.450Z,16.00
2022-11-30T14:36:38.692Z,15.00
2022-11-30T14:39:24.584Z,12.50
2022-11-30T14:41:52.858Z,15.00
2022-11-30T14:44:21.237Z,15.50
2022-11-30T14:46:49.972Z,12.50
2022-11-30T14:49:23.525Z,10.67
2022-11-30T14:51:58.227Z,13.00
2022-11-30T14:54:44.878Z,19.50
2022-11-30T14:57:19.467Z,13.00
2022-11-30T14:59:51.403Z,12.00
2022-11-30T15:02:30.135Z,13.00
2022-11-30T15:04:59.266Z,13.50
2022-11-30T15:07:29.965Z,13.50
2022-11-30T15:10:10.492Z,12.50
2022-11-30T15:12:40.277Z,15.00
2022-11-30T15:15:19.717Z,15.00
2022-11-30T15:17:51.483Z,13.50
2022-11-30T15:20:48.423Z,12.00
2022-11-30T15:23:17.730Z,13.00
2022-11-30T15:25:54.402Z,15.00
2022-11-30T15:28:27.565Z,15.50
2022-11-30T15:30:59.040Z,16.00
2022-11-30T15:33:42.376Z,12.00
2022-11-30T15:39:03.607Z,10.00
2022-11-30T15:41:32.918Z,11.00
2022-11-30T15:44:02.615Z,13.00
2022-11-30T15:46:34.448Z,16.50
2022-11-30T15:49:24.749Z,14.50
2022-11-30T15:52:25.712Z,10.00
2022-11-30T15:54:57.884Z,13.50
2022-11-30T15:57:28.412Z,12.00
2022-11-30T16:00:23.514Z,13.00
2022-11-30T16:03:11.777Z,16.00
2022-11-30T16:05:40.670Z,10.00
2022-11-30T16:08:17.337Z,13.00
2022-11-30T16:10:45.716Z,13.50
2022-11-30T16:13:18.801Z,12.00
2022-11-30T16:15:49.224Z,18.50
2022-11-30T16:18:25.852Z,15.00
2022-11-30T16:20:59.746Z,17.00
2022-11-30T16:23:28.736Z,10.00
2022-11-30T16:25:57.079Z,12.00
2022-11-30T16:28:25.456Z,9.50
2022-11-30T16:30:56.190Z,15.00
2022-11-30T16:33:25.945Z,15.33
2022-11-30T16:36:02.200Z,14.00
2022-11-30T16:38:30.544Z,14.00
2022-11-30T16:41:23.088Z,15.00
2022-11-30T16:43:53.297Z,15.00
2022-11-30T16:46:26.911Z,15.00
2022-11-30T16:48:55.719Z,13.33
2022-11-30T16:51:28.894Z,14.00
2022-11-30T16:53:57.901Z,11.00
2022-11-30T16:56:26.580Z,13.00
2022-11-30T16:58:55.167Z,14.33
2022-11-30T17:01:40.068Z,11.00
2022-11-30T17:04:19.156Z,11.50
2022-11-30T17:06:50.695Z,12.33
2022-11-30T17:09:21.240Z,16.00
2022-11-30T17:11:51.054Z,15.00
2022-11-30T17:14:20.766Z,16.00
2022-11-30T17:16:49.147Z,15.00
2022-11-30T17:19:17.728Z,18.00
2022-11-30T17:21:46.413Z,13.00
2022-11-30T17:24:14.894Z,9.33
2022-11-30T17:26:43.693Z,14.33
2022-11-30T17:29:11.972Z,16.00
2022-11-30T17:31:40.347Z,11.50
2022-11-30T17:34:09.130Z,16.00
2022-11-30T17:36:37.715Z,11.50
2022-11-30T17:39:07.755Z,16.00
2022-11-30T17:41:36.021Z,12.00
2022-11-30T17:44:04.516Z,20.00
2022-11-30T17:46:33.078Z,10.00
2022-11-30T17:49:01.557Z,13.67
2022-11-30T17:51:31.175Z,16.50
2022-11-30T17:54:00.081Z,16.00
2022-11-30T17:56:28.339Z,11.00
2022-11-30T17:58:56.710Z,12.00
2022-11-30T18:01:27.067Z,12.50
2022-11-30T18:03:56.028Z,13.00
2022-11-30T18:06:24.509Z,12.00
2022-11-30T18:08:52.992Z,16.00
2022-11-30T18:11:24.138Z,15.50
2022-11-30T18:13:54.879Z,14.50
2022-11-30T18:16:25.441Z,16.00
2022-11-30T18:18:56.240Z,8.00
2022-11-30T18:21:26.424Z,11.00
2022-11-30T18:23:55.248Z,14.67
2022-11-30T18:26:26.195Z,16.50
2022-11-30T18:28:57.270Z,16.00
2022-11-30T18:31:27.002Z,16.00
2022-11-30T18:33:56.855Z,10.00
2022-11-30T18:36:25.747Z,13.00
2022-11-30T18:38:54.744Z,12.00
2022-11-30T18:41:26.417Z,18.00
2022-11-30T18:43:55.083Z,18.00
2022-11-30T18:46:23.659Z,18.00
2022-11-30T18:48:53.275Z,18.00
2022-11-30T18:51:26.241Z,15.00
2022-11-30T18:53:59.970Z,13.50
2022-11-30T18:56:31.155Z,13.00
2022-11-30T18:59:01.984Z,13.00
2022-11-30T19:04:03.922Z,14.00
2022-11-30T19:06:33.475Z,15.00
2022-11-30T19:09:04.823Z,13.00
2022-11-30T19:11:36.343Z,16.00
2022-11-30T19:14:05.330Z,12.00
2022-11-30T19:16:35.212Z,12.00
2022-11-30T19:19:06.948Z,6.50
2022-11-30T19:21:35.281Z,13.00
2022-11-30T19:24:04.068Z,15.50
2022-11-30T19:26:32.473Z,15.00
2022-11-30T19:29:00.932Z,15.00
2022-11-30T19:31:29.494Z,12.00
2022-11-30T19:33:57.996Z,8.00
2022-11-30T19:36:28.886Z,12.00
2022-11-30T19:38:59.366Z,11.50
2022-11-30T19:41:28.363Z,12.00
2022-11-30T19:44:03.244Z,8.50
2022-11-30T19:46:34.914Z,10.00
2022-11-30T19:49:04.046Z,11.00
2022-11-30T19:51:32.245Z,8.00
2022-11-30T19:54:02.553Z,6.00
2022-11-30T19:56:32.256Z,11.50
2022-11-30T19:59:05.260Z,8.00
2022-11-30T20:01:35.522Z,12.50
2022-11-30T20:04:04.564Z,11.00
2022-11-30T20:06:36.352Z,12.67
2022-11-30T20:09:06.598Z,12.00
2022-11-30T20:11:35.677Z,12.00
2022-11-30T20:14:04.338Z,13.00
2022-11-30T20:16:33.087Z,10.00
2022-11-30T20:19:02.767Z,8.00
2022-11-30T20:21:33.838Z,14.00
2022-11-30T20:24:06.333Z,9.50
2022-11-30T20:26:40.353Z,8.50
2022-11-30T20:29:13.484Z,8.50
2022-11-30T20:31:42.844Z,9.00
2022-11-30T20:34:11.430Z,9.00
2022-11-30T20:36:39.809Z,10.00
2022-11-30T20:39:08.547Z,15.00
2022-11-30T20:41:37.078Z,11.00
2022-11-30T20:44:05.784Z,8.00
2022-11-30T20:46:36.019Z,11.00
2022-11-30T20:49:13.584Z,14.00
2022-11-30T20:51:41.964Z,12.00
2022-11-30T20:54:11.570Z,13.33
2022-11-30T20:56:40.359Z,9.00
2022-11-30T20:59:13.908Z,11.00
2022-11-30T21:01:44.259Z,11.00
2022-11-30T21:04:12.666Z,11.00
2022-11-30T21:06:45.952Z,10.50
2022-11-30T21:09:15.875Z,13.00
2022-11-30T21:11:44.664Z,14.00
2022-11-30T21:14:13.660Z,8.00
2022-11-30T21:16:42.039Z,10.00
2022-11-30T21:19:12.160Z,10.67
2022-11-30T21:21:40.454Z,8.67
2022-11-30T21:24:11.884Z,7.00
2022-11-30T21:26:42.983Z,10.00
2022-11-30T21:29:13.559Z,10.00
2022-11-30T21:31:42.658Z,7.00
2022-11-30T21:34:11.342Z,7.33
2022-11-30T21:36:39.625Z,11.00
2022-11-30T21:39:08.720Z,12.00
2022-11-30T21:41:38.843Z,8.00
2022-11-30T21:44:08.750Z,16.00
2022-11-30T21:46:37.418Z,11.00
2022-11-30T21:49:06.133Z,10.50
2022-11-30T21:51:34.912Z,11.00
2022-11-30T21:54:05.121Z,10.00
2022-11-30T21:56:38.021Z,15.00
2022-11-30T21:59:08.112Z,13.50
2022-11-30T22:01:39.063Z,10.00
2022-11-30T22:04:08.355Z,10.00
2022-11-30T22:06:38.049Z,13.50
2022-11-30T22:09:08.926Z,9.00
2022-11-30T22:11:39.873Z,10.00
2022-11-30T22:14:12.258Z,10.00
2022-11-30T22:16:40.691Z,8.67
2022-11-30T22:19:09.410Z,9.00
2022-11-30T22:21:37.811Z,9.50
2022-11-30T22:24:09.690Z,13.50
2022-11-30T22:26:42.840Z,11.00
2022-11-30T22:29:17.521Z,10.00
2022-11-30T22:31:47.637Z,9.67
2022-11-30T22:34:16.406Z,13.25
2022-11-30T22:36:45.679Z,10.00
2022-11-30T22:39:21.649Z,14.50
2022-11-30T22:41:55.133Z,16.00
2022-11-30T22:44:25.050Z,10.67
2022-11-30T22:46:53.403Z,13.00
2022-11-30T22:49:22.316Z,9.00
2022-11-30T22:51:51.221Z,12.00
2022-11-30T22:54:19.606Z,10.50
2022-11-30T22:56:48.181Z,10.67
2022-11-30T22:59:16.968Z,14.00
2022-11-30T23:01:48.521Z,11.00
2022-11-30T23:04:18.726Z,11.00
2022-11-30T23:06:49.092Z,12.00
2022-11-30T23:09:20.097Z,10.00
2022-11-30T23:11:49.206Z,12.00
2022-11-30T23:14:17.992Z,10.00
2022-11-30T23:16:46.781Z,11.67
2022-11-30T23:19:15.884Z,16.00
2022-11-30T23:21:48.894Z,11.67
2022-11-30T23:24:20.917Z,14.00
2022-11-30T23:26:49.205Z,10.00
2022-11-30T23:29:18.241Z,15.00
2022-11-30T23:31:47.363Z,13.33
2022-11-30T23:34:21.589Z,13.33
2022-11-30T23:36:51.018Z,10.00
2022-11-30T23:39:20.624Z,17.00
2022-11-30T23:41:49.004Z,14.33
2022-11-30T23:44:17.500Z,11.50
2022-11-30T23:46:46.484Z,16.67
2022-11-30T23:49:15.279Z,15.00
2022-11-30T23:51:43.688Z,13.00
2022-11-30T23:54:12.138Z,15.00
2022-11-30T23:56:40.620Z,15.00
2022-11-30T23:59:08.991Z,11.00
